createdAt,value
2022-10-05T00:01:29.383Z,9.80
2022-10-05T00:04:06.493Z,9.90
2022-10-05T00:06:33.917Z,9.90
2022-10-05T00:09:01.595Z,9.90
2022-10-05T00:11:28.970Z,9.90
2022-10-05T00:13:56.350Z,9.90
2022-10-05T00:16:23.756Z,9.90
2022-10-05T00:18:53.481Z,9.90
2022-10-05T00:21:22.596Z,9.90
2022-10-05T00:23:50.689Z,10.00
2022-10-05T00:26:26.578Z,9.90
2022-10-05T00:28:54.944Z,10.00
2022-10-05T00:31:33.335Z,10.00
2022-10-05T00:34:00.817Z,10.00
2022-10-05T00:36:28.196Z,10.00
2022-10-05T00:38:55.802Z,9.90
2022-10-05T00:41:58.322Z,10.00
2022-10-05T00:44:47.092Z,10.00
2022-10-05T00:47:37.005Z,10.00
2022-10-05T00:50:36.680Z,10.00
2022-10-05T00:53:36.038Z,10.00
2022-10-05T00:56:06.367Z,10.00
2022-10-05T00:58:52.326Z,10.00
2022-10-05T01:01:43.659Z,10.00
2022-10-05T01:04:20.432Z,10.00
2022-10-05T01:06:53.019Z,10.00
2022-10-05T01:09:33.056Z,9.90
2022-10-05T01:12:03.338Z,9.90
2022-10-05T01:14:57.338Z,10.00
2022-10-05T01:17:39.192Z,9.90
2022-10-05T01:20:31.079Z,9.90
2022-10-05T01:23:01.088Z,9.90
2022-10-05T01:25:55.843Z,9.90
2022-10-05T01:28:38.349Z,10.00
2022-10-05T01:31:30.327Z,10.00
2022-10-05T01:34:21.231Z,10.00
2022-10-05T01:36:56.750Z,10.00
2022-10-05T01:39:30.049Z,10.00
2022-10-05T01:42:00.090Z,9.90
2022-10-05T01:44:39.926Z,9.90
2022-10-05T01:47:21.975Z,9.90
2022-10-05T01:50:11.481Z,9.90
2022-10-05T01:52:56.409Z,9.90
2022-10-05T01:55:42.353Z,9.80
2022-10-05T01:58:09.641Z,9.80
2022-10-05T02:00:59.672Z,9.80
2022-10-05T02:03:54.002Z,9.80
2022-10-05T02:06:25.571Z,9.80
2022-10-05T02:08:59.082Z,9.80
2022-10-05T02:11:26.461Z,9.70
2022-10-05T02:13:59.407Z,9.70
2022-10-05T02:16:37.507Z,9.70
2022-10-05T02:19:27.570Z,9.70
2022-10-05T02:22:26.506Z,9.70
2022-10-05T02:25:01.736Z,9.70
2022-10-05T02:27:33.030Z,9.60
2022-10-05T02:30:05.639Z,9.50
2022-10-05T02:32:42.799Z,9.50
2022-10-05T02:35:17.783Z,9.40
2022-10-05T02:38:06.085Z,9.30
2022-10-05T02:41:06.455Z,9.30
2022-10-05T02:44:01.975Z,9.20
2022-10-05T02:46:49.199Z,9.20
2022-10-05T02:49:38.603Z,9.10
2022-10-05T02:52:16.972Z,9.10
2022-10-05T02:55:27.788Z,9.10
2022-10-05T02:58:13.035Z,9.00
2022-10-05T03:01:06.781Z,9.10
2022-10-05T03:03:43.582Z,9.10
2022-10-05T03:06:21.822Z,9.10
2022-10-05T03:09:05.023Z,9.10
2022-10-05T03:11:32.378Z,9.00
2022-10-05T03:14:13.592Z,9.00
2022-10-05T03:16:59.381Z,9.00
2022-10-05T03:19:29.184Z,9.00
2022-10-05T03:21:59.330Z,9.00
2022-10-05T03:24:59.853Z,8.90
2022-10-05T03:27:41.058Z,9.00
2022-10-05T03:30:16.605Z,9.00
2022-10-05T03:33:03.105Z,9.00
2022-10-05T03:35:38.706Z,9.00
2022-10-05T03:38:16.466Z,8.90
2022-10-05T03:40:59.531Z,8.90
2022-10-05T03:43:50.409Z,8.80
2022-10-05T03:46:39.083Z,8.80
2022-10-05T03:49:28.493Z,8.70
2022-10-05T03:52:03.439Z,8.70
2022-10-05T03:54:36.602Z,8.60
2022-10-05T03:57:09.026Z,8.60
2022-10-05T04:00:06.146Z,8.60
2022-10-05T04:03:00.740Z,8.50
2022-10-05T04:05:33.471Z,8.60
2022-10-05T04:08:31.204Z,8.50
2022-10-05T04:11:10.371Z,8.50
2022-10-05T04:13:49.875Z,8.40
2022-10-05T04:16:30.228Z,8.40
2022-10-05T04:19:16.125Z,8.40
2022-10-05T04:21:59.369Z,8.30
2022-10-05T04:24:39.677Z,8.30
2022-10-05T04:27:16.507Z,8.30
2022-10-05T04:30:16.390Z,8.30
2022-10-05T04:32:48.141Z,8.20
2022-10-05T04:35:41.642Z,8.20
2022-10-05T04:38:26.964Z,8.20
2022-10-05T04:41:16.384Z,8.20
2022-10-05T04:44:02.214Z,8.10
2022-10-05T04:47:06.628Z,8.10
2022-10-05T04:49:58.332Z,8.10
2022-10-05T04:52:55.110Z,8.10
2022-10-05T04:55:31.182Z,8.00
2022-10-05T04:58:18.159Z,8.00
2022-10-05T05:00:45.541Z,8.00
2022-10-05T05:03:21.696Z,8.10
2022-10-05T05:06:25.698Z,8.00
2022-10-05T05:09:24.658Z,8.00
2022-10-05T05:12:11.943Z,8.10
2022-10-05T05:15:09.684Z,8.00
2022-10-05T05:18:01.049Z,8.00
2022-10-05T05:20:37.662Z,8.00
2022-10-05T05:23:04.982Z,8.10
2022-10-05T05:25:56.974Z,8.10
2022-10-05T05:28:42.681Z,8.10
2022-10-05T05:31:20.224Z,8.10
2022-10-05T05:34:16.949Z,8.20
2022-10-05T05:36:49.727Z,8.30
2022-10-05T05:39:19.936Z,8.30
2022-10-05T05:41:58.697Z,8.40
2022-10-05T05:44:38.551Z,8.40
2022-10-05T05:47:20.765Z,8.40
2022-10-05T05:50:07.582Z,8.40
2022-10-05T05:52:45.938Z,8.50
2022-10-05T05:55:52.171Z,8.50
2022-10-05T05:58:25.067Z,8.60
2022-10-05T06:01:01.360Z,8.70
2022-10-05T06:03:34.211Z,8.80
2022-10-05T06:06:06.962Z,8.80
2022-10-05T06:08:47.692Z,8.80
2022-10-05T06:11:16.792Z,8.90
2022-10-05T06:13:45.009Z,9.00
2022-10-05T06:16:39.322Z,9.10
2022-10-05T06:19:14.267Z,9.10
2022-10-05T06:22:06.167Z,9.20
2022-10-05T06:24:45.032Z,9.30
2022-10-05T06:27:38.230Z,9.40
2022-10-05T06:30:15.791Z,9.40
2022-10-05T06:33:24.196Z,9.50
2022-10-05T06:36:12.229Z,9.70
2022-10-05T06:38:39.669Z,9.80
2022-10-05T06:41:15.737Z,10.00
2022-10-05T06:44:08.489Z,10.10
2022-10-05T06:47:06.258Z,10.20
2022-10-05T06:49:52.117Z,10.40
2022-10-05T06:52:38.357Z,10.40
2022-10-05T06:55:30.499Z,10.40
2022-10-05T06:58:26.505Z,10.50
2022-10-05T07:01:15.395Z,10.60
2022-10-05T07:04:04.703Z,10.60
2022-10-05T07:06:40.479Z,10.70
2022-10-05T07:09:20.948Z,10.70
2022-10-05T07:11:59.650Z,10.80
2022-10-05T07:14:43.394Z,10.70
2022-10-05T07:17:16.657Z,10.70
2022-10-05T07:20:01.178Z,10.70
2022-10-05T07:22:55.585Z,10.90
2022-10-05T07:25:41.168Z,11.00
2022-10-05T07:28:28.763Z,11.20
2022-10-05T07:30:58.620Z,11.30
2022-10-05T07:33:42.649Z,11.30
2022-10-05T07:36:55.053Z,11.30
2022-10-05T07:39:59.535Z,11.30
2022-10-05T07:42:50.716Z,11.20
2022-10-05T07:45:25.008Z,11.30
2022-10-05T07:47:59.218Z,11.50
2022-10-05T07:50:29.415Z,11.50
2022-10-05T07:53:19.220Z,11.50
2022-10-05T07:55:55.831Z,11.50
2022-10-05T07:58:29.629Z,11.60
2022-10-05T08:01:06.111Z,11.60
2022-10-05T08:04:06.004Z,11.80
2022-10-05T08:06:42.604Z,11.90
2022-10-05T08:09:28.902Z,12.10
2022-10-05T08:12:02.996Z,12.20
2022-10-05T08:14:53.890Z,12.40
2022-10-05T08:17:50.602Z,12.40
2022-10-05T08:20:40.323Z,12.40
2022-10-05T08:23:25.961Z,12.40
2022-10-05T08:26:06.781Z,12.50
2022-10-05T08:28:39.429Z,12.30
2022-10-05T08:31:18.984Z,12.30
2022-10-05T08:34:09.742Z,12.40
2022-10-05T08:36:39.830Z,12.50
2022-10-05T08:39:18.727Z,12.40
2022-10-05T08:41:57.654Z,12.60
2022-10-05T08:44:30.857Z,12.80
2022-10-05T08:47:17.023Z,12.90
2022-10-05T08:50:17.512Z,12.90
2022-10-05T08:53:03.524Z,12.90
2022-10-05T08:56:04.348Z,12.90
2022-10-05T08:58:48.919Z,12.90
2022-10-05T09:01:56.997Z,13.10
2022-10-05T09:04:46.653Z,13.20
2022-10-05T09:07:29.496Z,13.30
2022-10-05T09:10:02.750Z,13.50
2022-10-05T09:13:13.135Z,13.70
2022-10-05T09:16:18.919Z,14.00
2022-10-05T09:19:00.376Z,14.00
2022-10-05T09:21:36.410Z,14.00
2022-10-05T09:24:22.982Z,13.70
2022-10-05T09:27:36.715Z,13.80
2022-10-05T09:30:22.543Z,14.00
2022-10-05T09:32:49.837Z,14.10
2022-10-05T09:35:41.575Z,14.10
2022-10-05T09:38:36.527Z,14.20
2022-10-05T09:41:22.720Z,14.40
2022-10-05T09:44:05.268Z,14.20
2022-10-05T09:46:42.313Z,14.10
2022-10-05T09:49:16.853Z,14.10
2022-10-05T09:52:02.637Z,14.20
2022-10-05T09:55:03.148Z,14.40
2022-10-05T09:57:59.375Z,14.30
2022-10-05T10:01:08.949Z,14.60
2022-10-05T10:04:20.508Z,14.80
2022-10-05T10:07:11.712Z,14.90
2022-10-05T10:10:38.999Z,15.20
2022-10-05T10:13:20.205Z,15.40
2022-10-05T10:15:57.796Z,15.40
2022-10-05T10:18:40.235Z,15.30
2022-10-05T10:21:39.833Z,15.20
2022-10-05T10:24:25.076Z,15.00
2022-10-05T10:26:52.564Z,14.80
2022-10-05T10:29:33.925Z,14.70
2022-10-05T10:32:20.598Z,14.80
2022-10-05T10:35:22.172Z,15.00
2022-10-05T10:38:20.327Z,14.90
2022-10-05T10:41:12.202Z,15.00
2022-10-05T10:44:03.751Z,15.40
2022-10-05T10:46:49.974Z,15.80
2022-10-05T10:49:54.458Z,15.90
2022-10-05T10:52:58.290Z,15.80
2022-10-05T10:55:35.328Z,15.60
2022-10-05T11:01:18.917Z,15.40
2022-10-05T11:04:16.772Z,15.50
2022-10-05T11:07:01.552Z,15.40
2022-10-05T11:09:41.559Z,16.30
2022-10-05T11:12:43.236Z,16.50
2022-10-05T11:15:39.348Z,16.40
2022-10-05T11:18:34.984Z,16.40
2022-10-05T11:21:22.157Z,16.20
2022-10-05T11:24:27.231Z,15.80
2022-10-05T11:27:15.941Z,15.50
2022-10-05T11:30:02.186Z,15.60
2022-10-05T11:32:48.061Z,15.90
2022-10-05T11:35:32.830Z,16.60
2022-10-05T11:38:03.007Z,17.00
2022-10-05T11:41:09.759Z,16.80
2022-10-05T11:43:42.506Z,16.60
2022-10-05T11:46:27.561Z,16.60
2022-10-05T11:49:00.826Z,16.40
2022-10-05T11:51:30.829Z,16.90
2022-10-05T11:54:21.700Z,17.10
2022-10-05T11:56:57.856Z,17.40
2022-10-05T11:59:50.597Z,17.40
2022-10-05T12:02:38.839Z,18.00
2022-10-05T12:05:10.871Z,17.50
2022-10-05T12:08:01.224Z,17.00
2022-10-05T12:10:55.428Z,16.80
2022-10-05T12:13:52.071Z,16.50
2022-10-05T12:16:41.662Z,16.30
2022-10-05T12:19:16.520Z,16.20
2022-10-05T12:22:01.742Z,16.50
2022-10-05T12:24:37.926Z,16.40
2022-10-05T12:27:18.889Z,16.30
2022-10-05T12:30:05.842Z,16.30
2022-10-05T12:32:41.301Z,16.30
2022-10-05T12:35:53.513Z,16.50
2022-10-05T12:38:38.116Z,16.50
2022-10-05T12:41:19.857Z,16.40
2022-10-05T12:43:55.421Z,16.30
2022-10-05T12:46:46.886Z,16.40
2022-10-05T12:49:36.582Z,16.20
2022-10-05T12:52:07.024Z,16.10
2022-10-05T12:55:00.057Z,15.90
2022-10-05T12:57:42.875Z,15.90
2022-10-05T13:00:22.493Z,16.00
2022-10-05T13:03:03.734Z,16.20
2022-10-05T13:05:59.076Z,15.90
2022-10-05T13:08:58.735Z,16.00
2022-10-05T13:11:39.529Z,15.90
2022-10-05T13:14:12.831Z,15.80
2022-10-05T13:16:45.852Z,15.70
2022-10-05T13:19:30.287Z,15.70
2022-10-05T13:22:15.444Z,15.70
2022-10-05T13:24:59.614Z,15.80
2022-10-05T13:27:35.671Z,15.90
2022-10-05T13:30:11.426Z,15.80
2022-10-05T13:32:58.527Z,15.80
2022-10-05T13:35:29.878Z,15.70
2022-10-05T13:38:03.054Z,15.80
2022-10-05T13:40:40.208Z,15.90
2022-10-05T13:43:21.769Z,15.70
2022-10-05T13:46:02.098Z,15.60
2022-10-05T13:48:44.318Z,15.40
2022-10-05T13:51:28.858Z,15.30
2022-10-05T13:54:05.470Z,15.30
2022-10-05T13:56:39.547Z,15.50
2022-10-05T13:59:07.530Z,15.60
2022-10-05T14:01:59.378Z,15.70
2022-10-05T14:04:53.578Z,15.90
2022-10-05T14:07:26.357Z,16.30
2022-10-05T14:09:53.854Z,17.00
2022-10-05T14:12:23.363Z,17.50
2022-10-05T14:14:56.941Z,17.70
2022-10-05T14:17:33.329Z,17.80
2022-10-05T14:20:03.593Z,17.90
2022-10-05T14:22:41.926Z,17.30
2022-10-05T14:25:09.550Z,17.00
2022-10-05T14:27:49.279Z,16.70
2022-10-05T14:30:22.229Z,16.20
2022-10-05T14:32:56.292Z,15.70
2022-10-05T14:35:28.666Z,15.60
2022-10-05T14:38:02.311Z,15.40
2022-10-05T14:40:33.924Z,15.30
2022-10-05T14:43:16.505Z,15.10
2022-10-05T14:45:56.490Z,15.00
2022-10-05T14:48:28.093Z,14.90
2022-10-05T14:50:59.499Z,14.90
2022-10-05T14:53:43.670Z,14.90
2022-10-05T14:56:44.106Z,14.80
2022-10-05T14:59:41.261Z,14.70
2022-10-05T15:02:45.142Z,14.70
2022-10-05T15:05:31.302Z,14.70
2022-10-05T15:08:24.309Z,14.60
2022-10-05T15:11:00.536Z,14.50
2022-10-05T15:13:34.639Z,14.40
2022-10-05T15:16:17.393Z,14.30
2022-10-05T15:19:04.470Z,14.20
2022-10-05T15:21:55.308Z,14.20
2022-10-05T15:24:29.175Z,14.10
2022-10-05T15:27:02.323Z,14.00
2022-10-05T15:29:55.709Z,14.00
2022-10-05T15:32:41.734Z,13.90
2022-10-05T15:35:36.836Z,13.80
2022-10-05T15:38:21.059Z,13.70
2022-10-05T15:40:51.071Z,13.70
2022-10-05T15:43:21.679Z,13.60
2022-10-05T15:46:04.260Z,13.50
2022-10-05T15:49:26.966Z,13.50
2022-10-05T15:52:24.039Z,13.40
2022-10-05T15:55:23.107Z,13.40
2022-10-05T15:58:27.062Z,13.30
2022-10-05T16:01:18.607Z,13.20
2022-10-05T16:03:58.900Z,13.20
2022-10-05T16:07:03.284Z,13.20
2022-10-05T16:09:45.178Z,13.10
2022-10-05T16:12:50.543Z,13.00
2022-10-05T16:15:30.036Z,13.00
2022-10-05T16:18:23.239Z,12.90
2022-10-05T16:21:14.496Z,12.90
2022-10-05T16:23:59.456Z,12.90
2022-10-05T16:26:32.785Z,12.80
2022-10-05T16:29:18.425Z,12.70
2022-10-05T16:31:59.115Z,12.70
2022-10-05T16:34:49.105Z,12.60
2022-10-05T16:37:44.452Z,12.60
2022-10-05T16:40:28.478Z,12.60
2022-10-05T16:43:19.435Z,12.50
2022-10-05T16:46:13.003Z,12.50
2022-10-05T16:49:04.416Z,12.50
2022-10-05T16:51:42.143Z,12.50
2022-10-05T16:54:14.736Z,12.40
2022-10-05T16:56:48.213Z,12.40
2022-10-05T16:59:56.875Z,12.40
2022-10-05T17:02:39.543Z,12.30
2022-10-05T17:05:48.018Z,12.30
2022-10-05T17:08:33.536Z,12.30
2022-10-05T17:11:12.366Z,12.30
2022-10-05T17:14:05.158Z,12.30
2022-10-05T17:16:57.604Z,12.20
2022-10-05T17:19:32.892Z,12.20
2022-10-05T17:22:08.888Z,12.10
2022-10-05T17:24:58.604Z,12.10
2022-10-05T17:27:53.676Z,12.10
2022-10-05T17:30:32.173Z,12.10
2022-10-05T17:33:17.149Z,12.00
2022-10-05T17:35:52.074Z,12.00
2022-10-05T17:38:31.427Z,12.00
2022-10-05T17:41:11.589Z,12.00
2022-10-05T17:43:39.189Z,11.90
2022-10-05T17:46:09.335Z,12.00
2022-10-05T17:48:43.334Z,11.90
2022-10-05T17:51:47.215Z,11.90
2022-10-05T17:54:45.112Z,11.90
2022-10-05T17:57:18.360Z,11.80
2022-10-05T17:59:55.956Z,11.80
2022-10-05T18:02:39.928Z,11.80
2022-10-05T18:05:12.655Z,11.90
2022-10-05T18:07:41.712Z,11.90
2022-10-05T18:10:11.880Z,11.90
2022-10-05T18:12:41.897Z,11.90
2022-10-05T18:15:09.282Z,11.90
2022-10-05T18:17:43.930Z,12.00
2022-10-05T18:20:30.253Z,12.00
2022-10-05T18:23:03.549Z,12.00
2022-10-05T18:25:53.242Z,12.00
2022-10-05T18:28:54.307Z,12.10
2022-10-05T18:31:30.765Z,12.10
2022-10-05T18:34:10.159Z,12.10
2022-10-05T18:37:09.801Z,12.10
2022-10-05T18:39:40.173Z,12.20
2022-10-05T18:42:29.696Z,12.20
2022-10-05T18:45:06.611Z,12.20
2022-10-05T18:47:45.416Z,12.20
2022-10-05T18:50:28.987Z,12.20
2022-10-05T18:53:08.355Z,12.20
2022-10-05T18:55:41.069Z,12.20
2022-10-05T18:58:35.971Z,12.20
2022-10-05T19:01:42.497Z,12.20
2022-10-05T19:04:22.583Z,12.30
2022-10-05T19:07:29.549Z,12.30
2022-10-05T19:10:18.526Z,12.30
2022-10-05T19:12:59.361Z,12.30
2022-10-05T19:16:00.376Z,12.30
2022-10-05T19:18:40.728Z,12.30
2022-10-05T19:21:42.189Z,12.30
2022-10-05T19:24:18.409Z,12.30
2022-10-05T19:27:08.297Z,12.30
2022-10-05T19:30:03.742Z,12.30
2022-10-05T19:33:09.425Z,12.30
2022-10-05T19:35:58.445Z,12.30
2022-10-05T19:38:41.482Z,12.30
2022-10-05T19:41:16.152Z,12.30
2022-10-05T19:44:08.093Z,12.30
2022-10-05T19:46:55.961Z,12.20
2022-10-05T19:49:49.161Z,12.30
2022-10-05T19:52:26.625Z,12.30
2022-10-05T19:55:11.548Z,12.20
2022-10-05T19:57:56.399Z,12.20
2022-10-05T20:00:31.446Z,12.20
2022-10-05T20:03:15.874Z,12.10
2022-10-05T20:05:43.603Z,12.10
2022-10-05T20:08:19.253Z,12.10
2022-10-05T20:11:04.805Z,12.10
2022-10-05T20:13:35.216Z,12.00
2022-10-05T20:16:46.768Z,12.10
2022-10-05T20:19:51.384Z,12.10
2022-10-05T20:22:35.499Z,12.10
2022-10-05T20:25:25.605Z,12.10
2022-10-05T20:27:57.219Z,12.10
2022-10-05T20:30:29.264Z,12.10
2022-10-05T20:32:58.436Z,12.10
2022-10-05T20:35:33.846Z,12.10
2022-10-05T20:38:01.328Z,12.10
2022-10-05T20:40:31.330Z,12.10
2022-10-05T20:42:59.036Z,12.10
2022-10-05T20:45:26.478Z,12.10
2022-10-05T20:47:54.001Z,12.10
2022-10-05T20:50:22.317Z,12.10
2022-10-05T20:52:49.794Z,12.10
2022-10-05T20:55:17.232Z,12.10
2022-10-05T20:57:46.330Z,12.10
2022-10-05T21:00:14.020Z,12.10
2022-10-05T21:02:41.559Z,12.10
2022-10-05T21:05:09.781Z,12.00
2022-10-05T21:07:37.249Z,12.00
2022-10-05T21:10:05.177Z,12.00
2022-10-05T21:12:34.811Z,12.00
2022-10-05T21:15:04.919Z,12.00
2022-10-05T21:17:35.282Z,12.00
2022-10-05T21:20:02.698Z,12.00
2022-10-05T21:22:30.100Z,12.00
2022-10-05T21:24:58.526Z,11.90
2022-10-05T21:27:25.955Z,11.90
2022-10-05T21:29:53.290Z,11.90
2022-10-05T21:32:20.675Z,11.90
2022-10-05T21:34:48.046Z,11.80
2022-10-05T21:37:15.573Z,11.80
2022-10-05T21:39:42.867Z,11.80
2022-10-05T21:42:10.252Z,11.80
2022-10-05T21:44:37.554Z,11.80
2022-10-05T21:47:07.001Z,11.80
2022-10-05T21:49:35.796Z,11.70
2022-10-05T21:52:05.389Z,11.80
2022-10-05T21:54:33.843Z,11.70
2022-10-05T21:57:01.886Z,11.70
2022-10-05T21:59:33.007Z,11.60
2022-10-05T22:02:00.503Z,11.60
2022-10-05T22:04:28.105Z,11.50
2022-10-05T22:06:55.962Z,11.50
2022-10-05T22:09:23.649Z,11.50
2022-10-05T22:11:51.476Z,11.50
2022-10-05T22:14:18.895Z,11.50
2022-10-05T22:16:46.326Z,11.50
2022-10-05T22:19:18.250Z,11.40
2022-10-05T22:21:45.680Z,11.40
2022-10-05T22:24:13.191Z,11.30
2022-10-05T22:26:43.689Z,11.30
2022-10-05T22:29:11.309Z,11.30
2022-10-05T22:31:39.363Z,11.30
2022-10-05T22:34:06.800Z,11.20
2022-10-05T22:36:35.669Z,11.20
2022-10-05T22:39:03.703Z,11.20
2022-10-05T22:41:31.072Z,11.20
2022-10-05T22:43:58.532Z,11.20
2022-10-05T22:46:25.976Z,11.20
2022-10-05T22:48:53.345Z,11.20
2022-10-05T22:51:20.748Z,11.20
2022-10-05T22:53:48.105Z,11.20
2022-10-05T22:56:15.765Z,11.10
2022-10-05T22:58:44.240Z,11.10
2022-10-05T23:01:14.899Z,11.10
2022-10-05T23:03:42.871Z,11.20
2022-10-05T23:06:13.077Z,11.10
2022-10-05T23:08:41.797Z,11.10
2022-10-05T23:11:15.062Z,11.10
2022-10-05T23:13:42.390Z,11.10
2022-10-05T23:16:15.547Z,11.10
2022-10-05T23:18:43.852Z,11.10
2022-10-05T23:21:11.800Z,11.10
2022-10-05T23:23:41.163Z,11.10
2022-10-05T23:26:10.827Z,11.20
2022-10-05T23:28:40.102Z,11.10
2022-10-05T23:31:08.575Z,11.20
2022-10-05T23:33:36.329Z,11.20
2022-10-05T23:36:09.972Z,11.20
2022-10-05T23:38:37.733Z,11.10
2022-10-05T23:41:05.900Z,11.10
2022-10-05T23:43:33.774Z,11.10
2022-10-05T23:46:02.534Z,11.10
2022-10-05T23:48:31.522Z,11.10
2022-10-05T23:50:59.427Z,11.10
2022-10-05T23:53:26.824Z,11.10
2022-10-05T23:55:55.168Z,11.00
2022-10-05T23:58:23.339Z,11.00
